Time;durP1;ratioP1;P1;durP2;ratioP2;P2;SDS_P1;SDS_P2;PMS_P1;PMS_P2;Temp;Humidity;BMP_temperature;BMP_pressure;BME280_temperature;BME280_humidity;BME280_pressure;Samples;Min_cycle;Max_cycle;Signal;HPM_P1;HPM_P2
2022/11/03 00:01:45;;;;;;;8.55;3.03;;;11.80;99.90;;;;;;5050654;28;20044;-54
2022/11/03 00:04:12;;;;;;;11.98;3.15;;;11.60;99.90;;;;;;5050888;28;20121;-51
2022/11/03 00:06:39;;;;;;;15.18;4.43;;;11.40;99.90;;;;;;5065410;28;20162;-52
2022/11/03 00:09:07;;;;;;;12.40;3.10;;;12.10;99.90;;;;;;5050771;28;20033;-53
2022/11/03 00:11:34;;;;;;;9.35;2.70;;;11.60;99.90;;;;;;5050495;28;20418;-53
2022/11/03 00:14:00;;;;;;;11.60;3.55;;;11.60;99.90;;;;;;5050827;28;20033;-52
2022/11/03 00:16:26;;;;;;;10.57;3.00;;;11.30;99.90;;;;;;5053104;28;20040;-53
2022/11/03 00:18:52;;;;;;;11.90;2.80;;;11.50;99.90;;;;;;5058478;28;20106;-50
2022/11/03 00:21:18;;;;;;;9.45;2.80;;;11.30;99.90;;;;;;5047747;28;20036;-51
2022/11/03 00:23:44;;;;;;;13.25;3.10;;;11.30;14.70;;;;;;5050517;28;20033;-51
2022/11/03 00:26:10;;;;;;;14.15;2.75;;;;;;;;;;5050032;28;20055;-50
2022/11/03 00:28:36;;;;;;;12.23;3.10;;;11.20;99.90;;;;;;5059539;28;20037;-52
2022/11/03 00:31:12;;;;;;;18.60;4.07;;;11.70;99.90;;;;;;5037222;28;20032;-50
2022/11/03 00:33:39;;;;;;;9.32;2.90;;;11.10;99.90;;;;;;5042890;28;20033;-53
2022/11/03 00:36:06;;;;;;;10.77;3.03;;;11.30;99.90;;;;;;5050380;28;20589;-55
2022/11/03 00:38:32;;;;;;;11.45;2.63;;;11.10;99.90;;;;;;5049610;28;20379;-53
2022/11/03 00:41:02;;;;;;;11.57;2.95;;;11.00;99.90;;;;;;5050894;28;20496;-53
2022/11/03 00:43:30;;;;;;;11.77;3.50;;;11.30;99.90;;;;;;5051103;28;20154;-56
2022/11/03 00:45:56;;;;;;;17.40;3.47;;;11.20;99.90;;;;;;5046839;28;20037;-51
2022/11/03 00:48:28;;;;;;;10.40;2.90;;;11.10;99.90;;;;;;5051168;28;20422;-52
2022/11/03 00:51:14;;;;;;;16.45;3.35;;;11.10;99.90;;;;;;5065340;28;20082;-56
2022/11/03 00:53:57;;;;;;;10.95;3.22;;;11.90;99.90;;;;;;5068544;28;20045;-55
2022/11/03 00:56:34;;;;;;;11.40;3.30;;;10.90;99.90;;;;;;5063144;28;20037;-53
2022/11/03 00:59:01;;;;;;;9.93;2.65;;;11.20;99.90;;;;;;5026719;28;20033;-54
2022/11/03 01:01:30;;;;;;;15.38;3.50;;;;;;;;;;5062533;28;20039;-53
2022/11/03 01:06:49;;;;;;;16.02;3.38;;;11.30;99.90;;;;;;5055411;28;20048;-55
2022/11/03 01:09:16;;;;;;;8.30;2.50;;;11.60;99.90;;;;;;5052685;28;20036;-53
2022/11/03 01:11:49;;;;;;;13.77;3.55;;;11.00;99.90;;;;;;5064360;28;20041;-53
2022/11/03 01:14:15;;;;;;;9.73;2.67;;;11.10;99.90;;;;;;5050911;28;20039;-55
2022/11/03 01:16:41;;;;;;;13.10;3.78;;;11.10;99.90;;;;;;5061267;28;20697;-54
2022/11/03 01:19:07;;;;;;;13.23;2.92;;;10.70;99.90;;;;;;5070880;28;20051;-54
2022/11/03 01:21:33;;;;;;;12.45;3.30;;;11.00;99.90;;;;;;5063527;28;20486;-53
2022/11/03 01:24:03;;;;;;;12.02;2.83;;;11.40;99.90;;;;;;5045844;28;20040;-54
2022/11/03 01:26:29;;;;;;;11.82;3.50;;;10.90;99.90;;;;;;5065034;28;20040;-54
2022/11/03 01:28:57;;;;;;;13.82;3.42;;;10.70;99.90;;;;;;5058546;28;20036;-55
2022/11/03 01:31:24;;;;;;;13.38;3.13;;;11.00;99.90;;;;;;5055731;28;20502;-56
2022/11/03 01:33:52;;;;;;;11.93;3.35;;;11.00;99.90;;;;;;5041637;28;20051;-53
2022/11/03 01:36:18;;;;;;;12.98;3.22;;;11.30;99.90;;;;;;5056689;28;20440;-54
2022/11/03 01:38:44;;;;;;;11.75;3.08;;;10.80;99.90;;;;;;5062381;28;20029;-55
2022/11/03 01:41:16;;;;;;;17.85;3.80;;;10.80;99.90;;;;;;5052172;28;20048;-55
2022/11/03 01:43:42;;;;;;;13.18;3.25;;;10.80;99.90;;;;;;5059351;28;20122;-55
2022/11/03 01:46:10;;;;;;;13.90;3.47;;;10.60;99.90;;;;;;5057954;28;20094;-54
2022/11/03 01:48:40;;;;;;;19.80;3.50;;;10.40;99.90;;;;;;5053049;28;20494;-55
2022/11/03 01:51:08;;;;;;;16.20;3.03;;;10.50;99.90;;;;;;5056774;28;20056;-55
2022/11/03 01:53:37;;;;;;;14.10;3.05;;;10.60;99.90;;;;;;5055089;28;20060;-55
2022/11/03 01:56:03;;;;;;;10.95;3.30;;;10.30;99.90;;;;;;5062531;28;20029;-56
2022/11/03 01:58:33;;;;;;;13.52;3.33;;;10.60;99.90;;;;;;5053796;28;20033;-55
2022/11/03 02:01:00;;;;;;;13.10;3.45;;;9.80;99.90;;;;;;5061964;28;20128;-52
2022/11/03 02:03:30;;;;;;;12.88;3.15;;;10.00;99.90;;;;;;5055680;28;20044;-52
2022/11/03 02:05:56;;;;;;;12.73;3.67;;;10.40;99.90;;;;;;5055583;28;20044;-55
2022/11/03 02:08:51;;;;;;;12.57;3.55;;;10.30;99.90;;;;;;5068573;28;20086;-55
2022/11/03 02:14:00;;;;;;;7.70;2.13;;;10.50;99.90;;;;;;5061088;28;20033;-55
2022/11/03 02:16:29;;;;;;;14.35;3.80;;;10.60;99.90;;;;;;5062953;28;20112;-54
2022/11/03 02:18:56;;;;;;;13.57;3.50;;;10.50;99.90;;;;;;5050131;28;20111;-55
2022/11/03 02:21:50;;;;;;;11.90;3.33;;;10.50;99.90;;;;;;5064078;28;20040;-56
2022/11/03 02:24:22;;;;;;;13.40;3.00;;;10.40;99.90;;;;;;5053914;28;20136;-56
2022/11/03 02:26:52;;;;;;;11.52;2.92;;;10.60;99.90;;;;;;5040833;28;20125;-54
2022/11/03 02:29:18;;;;;;;9.38;2.60;;;11.00;99.90;;;;;;5060947;28;20028;-56
2022/11/03 02:31:53;;;;;;;11.55;3.03;;;10.60;99.90;;;;;;5067451;28;20488;-54
2022/11/03 02:34:51;;;;;;;15.57;3.65;;;10.60;99.90;;;;;;5053923;28;20041;-55
2022/11/03 02:37:22;;;;;;;14.00;3.17;;;11.10;99.90;;;;;;4969331;28;20427;-55
2022/11/03 02:40:01;;;;;;;13.98;3.38;;;10.10;99.90;;;;;;5036510;28;20119;-55
2022/11/03 02:42:28;;;;;;;12.85;3.30;;;10.00;99.90;;;;;;5056799;28;20041;-55
2022/11/03 02:44:58;;;;;;;12.82;3.17;;;10.90;99.90;;;;;;5058936;28;20116;-54
2022/11/03 02:47:25;;;;;;;13.30;3.65;;;10.60;99.90;;;;;;5060273;28;20044;-55
2022/11/03 02:49:53;;;;;;;9.65;3.25;;;10.70;99.90;;;;;;5058851;28;20044;-52
2022/11/03 02:52:39;;;;;;;8.90;2.58;;;11.20;99.90;;;;;;5061724;28;20397;-53
2022/11/03 02:55:34;;;;;;;12.65;3.67;;;10.40;99.90;;;;;;5060112;28;20067;-54
2022/11/03 02:58:13;;;;;;;11.55;3.00;;;10.60;99.90;;;;;;4948541;29;20194;-54
2022/11/03 03:00:52;;;;;;;8.48;2.92;;;10.00;99.90;;;;;;5055700;28;20102;-55
2022/11/03 03:03:24;;;;;;;13.02;3.03;;;10.60;99.90;;;;;;5061485;28;20036;-52
2022/11/03 03:05:54;;;;;;;9.85;2.67;;;10.50;99.90;;;;;;5061430;28;20029;-55
2022/11/03 03:08:22;;;;;;;11.32;2.92;;;9.90;99.90;;;;;;5058507;28;20469;-53
2022/11/03 03:10:48;;;;;;;8.88;2.95;;;10.40;99.90;;;;;;5063373;28;20087;-53
2022/11/03 03:13:18;;;;;;;16.95;3.00;;;10.00;99.90;;;;;;5064513;28;20553;-51
2022/11/03 03:15:56;;;;;;;10.43;2.72;;;10.60;99.90;;;;;;5053241;28;20036;-53
2022/11/03 03:18:43;;;;;;;11.25;2.85;;;10.60;99.90;;;;;;5061393;28;20082;-53
2022/11/03 03:21:20;;;;;;;13.60;3.33;;;11.00;99.90;;;;;;5057745;28;20039;-54
2022/11/03 03:23:58;;;;;;;11.10;3.15;;;10.90;99.90;;;;;;5053666;28;20044;-51
2022/11/03 03:26:30;;;;;;;11.13;2.38;;;10.60;99.90;;;;;;5066723;28;20477;-50
2022/11/03 03:28:58;;;;;;;10.40;2.60;;;;;;;;;;5062809;28;20044;-51
2022/11/03 03:31:26;;;;;;;10.75;3.00;;;10.70;99.90;;;;;;5067807;28;20470;-52
2022/11/03 03:33:54;;;;;;;14.07;3.45;;;10.50;99.90;;;;;;5025809;28;20045;-54
2022/11/03 03:36:23;;;;;;;14.32;3.35;;;10.80;99.90;;;;;;5060465;28;20033;-53
2022/11/03 03:38:57;;;;;;;13.43;3.42;;;10.60;99.90;;;;;;5066373;28;20051;-54
2022/11/03 03:41:25;;;;;;;13.00;2.72;;;10.30;99.90;;;;;;5049980;28;20057;-55
2022/11/03 03:43:54;;;;;;;15.57;3.90;;;10.60;99.90;;;;;;5045837;28;20052;-51
2022/11/03 03:46:22;;;;;;;14.38;3.63;;;10.80;99.90;;;;;;5042953;28;20478;-55
2022/11/03 03:48:48;;;;;;;15.93;3.10;;;11.10;99.90;;;;;;5060482;28;20084;-55
2022/11/03 03:51:18;;;;;;;13.32;3.47;;;11.10;99.90;;;;;;5042326;28;20204;-52
2022/11/03 03:53:49;;;;;;;11.55;3.00;;;10.80;99.90;;;;;;5055014;28;20056;-52
2022/11/03 03:56:16;;;;;;;13.38;2.95;;;10.00;99.90;;;;;;5058756;28;20044;-55
2022/11/03 03:58:42;;;;;;;12.07;2.90;;;10.80;99.90;;;;;;5062398;28;20518;-51
2022/11/03 04:01:11;;;;;;;12.43;2.90;;;10.40;99.90;;;;;;5043580;28;20028;-50
2022/11/03 04:03:36;;;;;;;8.48;2.97;;;10.40;99.90;;;;;;5061626;28;20170;-52
2022/11/03 04:06:02;;;;;;;14.30;2.97;;;10.60;99.90;;;;;;5058910;28;20111;-53
2022/11/03 04:08:28;;;;;;;13.70;3.53;;;10.50;99.90;;;;;;5059891;28;20087;-55
2022/11/03 04:24:38;;;;;;;13.82;3.53;;;10.40;99.90;;;;;;5060872;28;20513;-50
2022/11/03 04:27:25;;;;;;;13.13;2.95;;;;;;;;;;5057750;28;20113;-51
2022/11/03 04:29:51;;;;;;;11.77;3.65;;;10.30;99.90;;;;;;5056457;28;20369;-51
2022/11/03 04:32:17;;;;;;;10.48;3.03;;;10.30;99.90;;;;;;5053193;28;20119;-51
2022/11/03 04:34:47;;;;;;;12.15;3.08;;;10.50;99.90;;;;;;5062683;28;20082;-54
2022/11/03 04:37:15;;;;;;;14.63;3.58;;;10.20;99.90;;;;;;5065687;28;20029;-55
2022/11/03 04:39:41;;;;;;;12.35;3.00;;;10.50;99.90;;;;;;5044600;28;20394;-54
2022/11/03 04:42:16;;;;;;;13.75;3.28;;;;;;;;;;5038286;28;20132;-56
2022/11/03 04:44:42;;;;;;;12.18;2.90;;;10.20;99.90;;;;;;5063079;28;20421;-54
2022/11/03 04:47:11;;;;;;;11.32;3.80;;;9.70;99.90;;;;;;5069294;28;20044;-55
2022/11/03 04:49:37;;;;;;;10.43;3.67;;;9.50;99.90;;;;;;5060067;28;20071;-54
2022/11/03 04:52:04;;;;;;;12.93;3.15;;;9.90;99.90;;;;;;5064709;28;20177;-56
2022/11/03 04:54:30;;;;;;;11.95;3.33;;;10.50;99.90;;;;;;5062636;28;20100;-56
2022/11/03 04:56:55;;;;;;;12.05;3.03;;;10.20;99.90;;;;;;5045362;28;20115;-55
2022/11/03 04:59:21;;;;;;;16.08;4.43;;;;;;;;;;5061781;28;20108;-53
2022/11/03 05:01:47;;;;;;;10.13;2.78;;;10.30;99.90;;;;;;5053963;28;20509;-53
2022/11/03 05:04:16;;;;;;;10.93;3.45;;;9.80;99.90;;;;;;5056017;28;20069;-55
2022/11/03 05:06:51;;;;;;;8.98;2.92;;;9.40;99.90;;;;;;5059080;28;20060;-54
2022/11/03 05:09:22;;;;;;;9.73;2.85;;;9.50;99.90;;;;;;5059826;28;20119;-55
2022/11/03 05:11:47;;;;;;;15.63;3.47;;;9.40;99.90;;;;;;5059009;28;20137;-55
2022/11/03 05:14:18;;;;;;;13.18;3.20;;;9.80;99.90;;;;;;5061475;28;20024;-54
2022/11/03 05:16:46;;;;;;;14.85;3.72;;;10.30;99.90;;;;;;5027618;28;20044;-53
2022/11/03 05:19:19;;;;;;;12.68;3.45;;;10.40;99.90;;;;;;5062093;28;20044;-53
2022/11/03 05:21:48;;;;;;;12.93;3.30;;;10.30;99.90;;;;;;5060100;28;20430;-55
2022/11/03 05:24:15;;;;;;;9.23;2.83;;;9.90;99.90;;;;;;5057022;28;20033;-53
2022/11/03 05:26:41;;;;;;;8.90;2.88;;;10.30;99.90;;;;;;5055930;28;20036;-53
2022/11/03 05:29:18;;;;;;;13.32;3.58;;;9.60;99.90;;;;;;5051117;28;20041;-53
2022/11/03 05:31:47;;;;;;;11.85;3.28;;;10.20;99.90;;;;;;5055294;28;20073;-54
2022/11/03 05:34:36;;;;;;;14.77;3.60;;;9.90;99.90;;;;;;5052963;28;20135;-53
2022/11/03 05:37:24;;;;;;;13.57;3.38;;;9.50;99.90;;;;;;5058707;28;20029;-50
2022/11/03 05:39:52;;;;;;;15.60;3.40;;;9.40;99.90;;;;;;5040695;28;20059;-54
2022/11/03 05:42:30;;;;;;;14.32;3.28;;;10.40;99.90;;;;;;5069008;28;20466;-53
2022/11/03 05:44:56;;;;;;;15.38;3.47;;;10.20;99.90;;;;;;5048124;28;20045;-53
2022/11/03 05:47:29;;;;;;;11.35;3.20;;;10.40;99.90;;;;;;5059378;28;20055;-55
2022/11/03 05:50:00;;;;;;;15.15;3.75;;;9.80;99.90;;;;;;5058160;28;20469;-53
2022/11/03 05:52:27;;;;;;;9.70;3.08;;;10.50;99.90;;;;;;5054727;28;20048;-51
2022/11/03 05:54:58;;;;;;;10.20;2.88;;;10.50;99.90;;;;;;5053609;28;20037;-54
2022/11/03 05:57:27;;;;;;;20.30;3.72;;;10.40;99.90;;;;;;5048141;28;20395;-55
2022/11/03 05:59:53;;;;;;;15.85;3.42;;;10.60;99.90;;;;;;5042740;28;20406;-55
2022/11/03 06:02:38;;;;;;;11.45;3.10;;;10.80;99.90;;;;;;5046045;28;20040;-52
2022/11/03 06:05:17;;;;;;;11.18;3.20;;;10.60;99.90;;;;;;5037324;28;20049;-56
2022/11/03 06:07:43;;;;;;;10.68;2.80;;;10.10;99.90;;;;;;5043441;28;20407;-53
2022/11/03 06:10:29;;;;;;;10.75;3.42;;;10.80;99.90;;;;;;5044654;28;20499;-53
2022/11/03 06:13:00;;;;;;;11.82;3.30;;;10.50;99.90;;;;;;5017958;28;20049;-54
2022/11/03 06:15:32;;;;;;;15.20;3.75;;;10.40;99.90;;;;;;5041355;28;20046;-55
2022/11/03 06:17:58;;;;;;;10.13;2.90;;;10.60;99.90;;;;;;5036626;28;20395;-55
2022/11/03 06:20:25;;;;;;;14.18;3.63;;;;;;;;;;5038512;28;20033;-54
2022/11/03 06:22:54;;;;;;;12.85;3.38;;;;;;;;;;5034675;28;20083;-53
2022/11/03 06:25:27;;;;;;;9.75;2.90;;;;;;;;;;5050299;28;20116;-53
2022/11/03 06:27:56;;;;;;;11.77;2.97;;;10.30;99.90;;;;;;5045092;28;20106;-51
2022/11/03 06:30:48;;;;;;;12.77;3.42;;;10.50;99.90;;;;;;5067605;28;20274;-54
2022/11/03 06:33:27;;;;;;;10.32;3.17;;;10.10;99.90;;;;;;5057519;28;20644;-52
2022/11/03 06:36:05;;;;;;;13.18;2.75;;;10.40;99.90;;;;;;5054584;28;20064;-54
2022/11/03 06:38:33;;;;;;;9.70;2.80;;;10.50;99.90;;;;;;5040679;28;20045;-51
2022/11/03 06:40:59;;;;;;;11.45;3.03;;;10.30;99.90;;;;;;5059680;28;20036;-51
2022/11/03 06:43:27;;;;;;;11.75;3.35;;;10.30;99.90;;;;;;5060554;28;20037;-52
2022/11/03 06:46:01;;;;;;;14.20;3.25;;;;;;;;;;5047857;28;20363;-53
2022/11/03 06:48:28;;;;;;;12.02;3.75;;;10.30;99.90;;;;;;5063036;28;20577;-50
2022/11/03 06:50:57;;;;;;;12.48;3.33;;;9.90;99.90;;;;;;5040484;28;20046;-51
2022/11/03 06:53:26;;;;;;;13.85;3.08;;;10.60;99.90;;;;;;5040567;28;20041;-55
2022/11/03 06:55:52;;;;;;;12.48;3.08;;;9.90;99.90;;;;;;5041197;28;20456;-52
2022/11/03 06:58:36;;;;;;;13.38;3.22;;;10.50;99.90;;;;;;5047039;28;20053;-53
2022/11/03 07:01:23;;;;;;;11.60;3.17;;;10.50;99.90;;;;;;5041879;28;20071;-57
2022/11/03 07:03:55;;;;;;;11.80;3.20;;;10.20;99.90;;;;;;5024795;28;20091;-53
2022/11/03 07:06:36;;;;;;;9.10;3.28;;;;;;;;;;5039948;28;20048;-53
2022/11/03 07:09:12;;;;;;;9.75;2.72;;;10.60;99.90;;;;;;5046062;28;20041;-55
2022/11/03 07:11:48;;;;;;;11.95;3.13;;;9.80;99.90;;;;;;5049899;28;20037;-54
2022/11/03 07:14:19;;;;;;;10.23;3.58;;;;;;;;;;5032145;28;20447;-55
2022/11/03 07:17:10;;;;;;;12.85;3.63;;;10.60;99.90;;;;;;5031157;28;20448;-56
2022/11/03 07:19:40;;;;;;;12.65;3.25;;;10.20;99.90;;;;;;5030922;28;20076;-55
2022/11/03 07:22:22;;;;;;;10.60;2.88;;;10.50;99.90;;;;;;5041844;28;20092;-55
2022/11/03 07:24:51;;;;;;;9.73;3.63;;;10.60;99.90;;;;;;5045110;28;20421;-57
2022/11/03 07:27:23;;;;;;;16.40;4.28;;;10.60;99.90;;;;;;5048434;28;20043;-57
2022/11/03 07:29:50;;;;;;;11.32;3.10;;;10.30;99.90;;;;;;5049231;28;20044;-56
2022/11/03 07:32:19;;;;;;;9.30;3.13;;;10.70;99.90;;;;;;5040873;28;20045;-57
2022/11/03 07:34:46;;;;;;;11.07;3.10;;;10.90;99.90;;;;;;5052137;28;20418;-57
2022/11/03 07:37:18;;;;;;;13.55;3.83;;;10.60;99.90;;;;;;5049867;28;20193;-57
2022/11/03 07:39:44;;;;;;;11.85;3.42;;;10.80;99.90;;;;;;5048246;28;20032;-58
2022/11/03 07:42:20;;;;;;;9.63;3.00;;;10.80;99.90;;;;;;5055326;28;20049;-56
2022/11/03 07:44:47;;;;;;;11.80;3.60;;;10.50;99.90;;;;;;5055344;28;20044;-57
2022/11/03 07:47:18;;;;;;;11.10;3.35;;;10.60;99.90;;;;;;5042314;28;20517;-58
2022/11/03 07:49:44;;;;;;;10.15;3.45;;;10.70;99.90;;;;;;5044794;28;20048;-57
2022/11/03 07:52:14;;;;;;;10.77;3.50;;;11.10;99.90;;;;;;5036906;28;20038;-56
2022/11/03 07:54:40;;;;;;;9.50;3.90;;;10.80;99.90;;;;;;5037085;28;20033;-56
2022/11/03 07:57:24;;;;;;;11.80;3.40;;;10.40;99.90;;;;;;5039592;28;20047;-57
2022/11/03 07:59:54;;;;;;;12.30;2.92;;;11.30;99.90;;;;;;5044124;28;20037;-55
2022/11/03 08:02:20;;;;;;;11.20;3.38;;;11.10;99.90;;;;;;5057470;28;20036;-57
2022/11/03 08:04:45;;;;;;;13.10;3.15;;;10.70;99.90;;;;;;5059233;28;20049;-56
2022/11/03 08:07:11;;;;;;;10.15;3.65;;;11.00;99.90;;;;;;5051921;28;20464;-56
2022/11/03 08:09:36;;;;;;;10.13;2.90;;;11.20;99.90;;;;;;5058432;28;20036;-56
2022/11/03 08:12:02;;;;;;;12.63;3.47;;;11.10;99.90;;;;;;5052085;28;20413;-57
2022/11/03 08:14:29;;;;;;;13.43;3.47;;;11.10;99.90;;;;;;5060052;28;20036;-57
2022/11/03 08:16:55;;;;;;;13.10;3.00;;;11.00;99.90;;;;;;5060930;28;20040;-57
2022/11/03 08:19:20;;;;;;;8.93;3.25;;;11.30;99.90;;;;;;5050499;28;20120;-57
2022/11/03 08:21:46;;;;;;;9.98;3.13;;;10.90;99.90;;;;;;5058330;28;20505;-57
2022/11/03 08:24:11;;;;;;;12.70;3.25;;;11.40;99.90;;;;;;5048012;28;20033;-56
2022/11/03 08:26:37;;;;;;;9.73;2.60;;;11.00;99.90;;;;;;5026537;28;20044;-57
2022/11/03 08:29:03;;;;;;;12.82;4.80;;;11.30;99.90;;;;;;5045020;28;20037;-55
2022/11/03 08:31:28;;;;;;;10.68;3.47;;;11.40;99.90;;;;;;5032014;28;20490;-57
2022/11/03 08:33:54;;;;;;;13.82;4.50;;;12.00;99.90;;;;;;5044492;28;20044;-55
2022/11/03 08:36:19;;;;;;;14.80;4.00;;;11.50;99.90;;;;;;5045656;28;20037;-55
2022/11/03 08:38:45;;;;;;;9.98;3.30;;;11.80;99.90;;;;;;5046896;28;20498;-54
2022/11/03 08:41:13;;;;;;;12.45;3.47;;;12.10;99.90;;;;;;5055252;28;20033;-55
2022/11/03 08:43:39;;;;;;;12.00;4.35;;;11.80;99.90;;;;;;5054556;28;20501;-56
2022/11/03 08:46:04;;;;;;;11.73;3.38;;;11.40;99.90;;;;;;5048788;28;20073;-54
2022/11/03 08:48:30;;;;;;;10.25;3.20;;;11.90;99.90;;;;;;5051319;28;20402;-54
2022/11/03 08:50:56;;;;;;;13.82;3.28;;;11.70;99.90;;;;;;5055833;28;20040;-53
2022/11/03 08:53:25;;;;;;;10.90;3.20;;;12.70;99.90;;;;;;5056271;28;20075;-55
2022/11/03 08:55:54;;;;;;;12.20;3.55;;;12.00;99.90;;;;;;5051802;28;20069;-56
2022/11/03 08:58:21;;;;;;;11.52;3.35;;;11.90;99.90;;;;;;5056011;28;20107;-55
2022/11/03 09:00:47;;;;;;;10.32;3.20;;;12.00;99.90;;;;;;5036085;28;20132;-56
2022/11/03 09:03:13;;;;;;;14.10;3.95;;;;;;;;;;5051808;28;20040;-52
2022/11/03 09:05:39;;;;;;;8.10;3.20;;;12.20;99.90;;;;;;5049353;28;20033;-56
2022/11/03 09:08:05;;;;;;;12.00;3.00;;;12.10;99.90;;;;;;5058763;28;20041;-52
2022/11/03 09:10:31;;;;;;;14.15;3.00;;;12.00;99.90;;;;;;5043188;28;20120;-55
2022/11/03 09:12:56;;;;;;;10.50;2.83;;;12.60;99.90;;;;;;5054461;28;20124;-55
2022/11/03 09:15:22;;;;;;;18.30;5.10;;;12.20;99.90;;;;;;5056358;28;20036;-52
2022/11/03 09:17:48;;;;;;;10.10;3.28;;;12.70;99.90;;;;;;5066198;28;20047;-52
2022/11/03 09:20:13;;;;;;;11.82;3.13;;;12.60;99.90;;;;;;5057987;28;20033;-52
2022/11/03 09:22:39;;;;;;;15.88;4.22;;;12.80;99.90;;;;;;5043023;28;20043;-55
2022/11/03 09:25:05;;;;;;;11.68;3.75;;;12.70;99.90;;;;;;5058234;28;20119;-53
2022/11/03 09:27:31;;;;;;;17.20;4.03;;;12.30;99.90;;;;;;5056627;28;20052;-51
2022/11/03 09:29:56;;;;;;;9.15;3.00;;;12.60;99.90;;;;;;5058807;28;20036;-54
2022/11/03 09:32:22;;;;;;;7.05;2.58;;;13.20;99.90;;;;;;5044218;28;20403;-55
2022/11/03 09:34:48;;;;;;;9.98;3.00;;;12.60;99.90;;;;;;5065798;28;20040;-53
2022/11/03 09:37:14;;;;;;;10.30;2.65;;;12.90;99.90;;;;;;5056950;28;20074;-54
2022/11/03 09:39:41;;;;;;;8.77;2.72;;;;;;;;;;5052590;28;20239;-54
2022/11/03 09:42:07;;;;;;;10.00;3.25;;;12.70;99.90;;;;;;5044802;28;20044;-56
2022/11/03 09:44:35;;;;;;;12.50;3.72;;;13.30;99.90;;;;;;5022937;28;20056;-56
2022/11/03 09:47:02;;;;;;;10.52;3.17;;;12.30;99.90;;;;;;5040054;28;20045;-56
2022/11/03 09:49:30;;;;;;;10.52;2.72;;;12.60;99.90;;;;;;5059231;28;20041;-54
2022/11/03 09:51:56;;;;;;;9.18;3.38;;;12.80;99.90;;;;;;5049841;28;20045;-62
2022/11/03 09:54:22;;;;;;;11.60;2.92;;;13.20;99.90;;;;;;5057156;28;20044;-63
2022/11/03 09:56:48;;;;;;;16.10;3.65;;;13.80;99.90;;;;;;5055366;28;20032;-63
2022/11/03 09:59:22;;;;;;;11.15;3.28;;;13.00;99.90;;;;;;5055424;28;20029;-61
2022/11/03 10:01:49;;;;;;;11.00;2.90;;;12.80;99.90;;;;;;5045294;28;20047;-64
2022/11/03 10:04:30;;;;;;;7.15;2.97;;;12.90;99.90;;;;;;5042373;28;20134;-61
2022/11/03 10:06:56;;;;;;;10.32;2.65;;;12.80;99.90;;;;;;5023204;28;20047;-63
2022/11/03 10:09:23;;;;;;;9.25;3.30;;;13.20;99.90;;;;;;5038094;28;20532;-62
2022/11/03 10:11:52;;;;;;;10.02;2.67;;;13.40;99.90;;;;;;5043912;28;20041;-61
2022/11/03 10:14:18;;;;;;;8.52;2.70;;;13.00;99.90;;;;;;5023171;28;20037;-60
2022/11/03 10:16:55;;;;;;;8.18;2.78;;;13.10;99.90;;;;;;5025146;28;20052;-62
2022/11/03 10:19:20;;;;;;;10.02;2.78;;;13.70;99.90;;;;;;5039915;28;20041;-62
2022/11/03 10:21:46;;;;;;;8.38;2.72;;;13.30;99.90;;;;;;5040662;28;20044;-62
2022/11/03 10:24:13;;;;;;;8.95;2.83;;;13.50;99.90;;;;;;5035756;28;20034;-61
2022/11/03 10:26:47;;;;;;;8.68;3.03;;;13.80;99.90;;;;;;5055799;28;20051;-62
2022/11/03 10:29:24;;;;;;;15.68;3.88;;;13.70;99.90;;;;;;5059486;28;20094;-60
2022/11/03 10:31:52;;;;;;;9.30;3.60;;;13.50;99.90;;;;;;5053528;28;20573;-61
2022/11/03 10:34:27;;;;;;;9.70;2.90;;;;;;;;;;5050979;28;20086;-61
2022/11/03 10:37:08;;;;;;;13.15;2.72;;;13.00;99.90;;;;;;5053845;28;20121;-63
2022/11/03 10:39:34;;;;;;;10.27;2.90;;;13.90;99.90;;;;;;5057621;28;20082;-63
2022/11/03 10:41:59;;;;;;;11.48;3.63;;;13.20;99.90;;;;;;5063037;28;20028;-62
2022/11/03 10:44:27;;;;;;;12.52;3.25;;;14.10;99.90;;;;;;5039245;28;20037;-62
2022/11/03 10:46:56;;;;;;;8.35;3.13;;;13.10;99.90;;;;;;5053158;28;20033;-61
2022/11/03 10:49:22;;;;;;;10.43;2.70;;;13.30;99.90;;;;;;5040486;28;20073;-60
2022/11/03 10:51:53;;;;;;;10.30;2.70;;;13.00;99.90;;;;;;5051330;28;20098;-62
2022/11/03 10:54:23;;;;;;;12.57;3.38;;;13.80;99.90;;;;;;5047232;28;20033;-62
2022/11/03 10:56:50;;;;;;;9.10;2.58;;;14.40;99.90;;;;;;5025346;28;20033;-62
2022/11/03 10:59:30;;;;;;;7.97;2.75;;;14.00;99.90;;;;;;5033570;28;20240;-62
2022/11/03 11:01:57;;;;;;;8.95;2.92;;;13.90;99.90;;;;;;5034214;28;20033;-61
2022/11/03 11:04:22;;;;;;;14.13;3.50;;;13.80;99.90;;;;;;5043226;28;20456;-61
2022/11/03 11:06:48;;;;;;;11.98;3.20;;;14.20;99.90;;;;;;5032865;28;20119;-61
2022/11/03 11:09:25;;;;;;;9.38;2.60;;;14.50;99.90;;;;;;5032873;28;20064;-62
2022/11/03 11:12:05;;;;;;;11.13;2.78;;;14.00;99.90;;;;;;5038385;28;20086;-61
2022/11/03 11:14:38;;;;;;;8.23;2.95;;;14.10;99.90;;;;;;5033291;28;20030;-62
2022/11/03 11:17:05;;;;;;;8.68;2.33;;;13.60;99.90;;;;;;5015050;28;20041;-62
2022/11/03 11:20:09;;;;;;;10.00;2.88;;;14.30;99.90;;;;;;5048479;28;20386;-62
2022/11/03 11:22:35;;;;;;;10.35;3.05;;;14.10;99.90;;;;;;5039950;28;20187;-61
2022/11/03 11:25:02;;;;;;;9.32;2.67;;;14.10;99.90;;;;;;5040504;28;20120;-61
2022/11/03 11:27:30;;;;;;;9.30;3.55;;;14.00;99.90;;;;;;5041805;28;20036;-61
2022/11/03 11:29:57;;;;;;;9.57;2.47;;;15.50;99.90;;;;;;5039693;28;20127;-61
2022/11/03 11:32:41;;;;;;;10.93;2.60;;;14.70;99.90;;;;;;5037805;28;20403;-61
2022/11/03 11:35:27;;;;;;;9.57;3.00;;;14.60;98.40;;;;;;5035490;28;20037;-61
2022/11/03 11:37:53;;;;;;;11.70;2.88;;;13.80;99.90;;;;;;5036944;28;20033;-61
2022/11/03 11:40:24;;;;;;;11.10;2.65;;;14.50;99.90;;;;;;5037281;28;20059;-60
2022/11/03 11:43:05;;;;;;;13.02;3.13;;;14.60;97.80;;;;;;5040060;28;20044;-61
2022/11/03 11:46:08;;;;;;;8.15;2.90;;;14.80;99.90;;;;;;5054726;28;20059;-62
2022/11/03 11:48:34;;;;;;;8.23;2.45;;;14.30;99.90;;;;;;5045425;28;20041;-61
2022/11/03 11:51:01;;;;;;;9.48;3.10;;;14.90;99.90;;;;;;5040349;28;20034;-62
2022/11/03 11:53:36;;;;;;;6.78;2.40;;;14.90;99.90;;;;;;5042808;28;20094;-62
2022/11/03 11:56:02;;;;;;;9.30;2.75;;;14.80;79.20;;;;;;5046210;28;20403;-63
2022/11/03 11:58:37;;;;;;;10.65;2.45;;;14.70;69.00;;;;;;5047790;28;20037;-62
2022/11/03 12:01:05;;;;;;;9.68;2.70;;;14.10;13.40;;;;;;5045450;28;20561;-61
2022/11/03 12:03:41;;;;;;;7.97;3.10;;;14.40;1.00;;;;;;5041925;28;20045;-61
2022/11/03 12:06:08;;;;;;;10.35;2.30;;;14.90;4.20;;;;;;5040001;28;20137;-61
2022/11/03 12:08:34;;;;;;;9.93;2.47;;;;;;;;;;5059934;28;20518;-62
2022/11/03 12:11:02;;;;;;;10.00;3.22;;;14.20;99.90;;;;;;5120347;22;20068;-53
2022/11/03 12:13:50;;;;;;;9.68;3.00;;;14.80;94.60;;;;;;5049929;28;20037;-57
2022/11/03 12:16:30;;;;;;;9.13;2.92;;;14.10;99.90;;;;;;5039908;28;20502;-56
2022/11/03 12:18:56;;;;;;;9.73;2.78;;;14.50;80.10;;;;;;5055411;28;20040;-56
2022/11/03 12:21:47;;;;;;;10.05;3.00;;;14.60;98.60;;;;;;5035651;28;20491;-58
2022/11/03 12:24:31;;;;;;;11.00;2.65;;;14.50;83.90;;;;;;5040299;28;20069;-59
2022/11/03 12:26:58;;;;;;;9.27;2.85;;;13.80;39.50;;;;;;5039819;28;20056;-56
2022/11/03 12:29:23;;;;;;;9.15;3.38;;;14.10;86.80;;;;;;5044383;28;20068;-56
2022/11/03 12:31:49;;;;;;;10.02;2.78;;;13.90;72.40;;;;;;5047382;28;20060;-56
2022/11/03 12:34:15;;;;;;;8.57;2.88;;;14.70;31.50;;;;;;5042988;28;20428;-56
2022/11/03 12:36:42;;;;;;;5.90;2.30;;;14.90;1.00;;;;;;5031073;28;20029;-58
2022/11/03 12:39:07;;;;;;;10.68;2.42;;;14.60;1.00;;;;;;5033869;28;20033;-57
2022/11/03 12:41:33;;;;;;;9.45;2.35;;;14.30;1.00;;;;;;5035087;28;20376;-59
2022/11/03 12:43:58;;;;;;;8.52;2.30;;;14.60;1.00;;;;;;5032353;28;20025;-56
2022/11/03 12:46:24;;;;;;;9.90;2.88;;;14.70;1.00;;;;;;5036458;28;20029;-56
2022/11/03 12:48:51;;;;;;;7.88;2.40;;;14.70;1.00;;;;;;5049529;28;20525;-57
2022/11/03 12:51:21;;;;;;;11.82;2.88;;;14.40;1.00;;;;;;5029887;28;20498;-56
2022/11/03 12:53:48;;;;;;;9.57;2.50;;;15.10;1.00;;;;;;5049582;28;20135;-58
2022/11/03 12:56:15;;;;;;;9.35;2.92;;;14.50;1.00;;;;;;5035213;28;20278;-57
2022/11/03 12:58:41;;;;;;;9.05;2.63;;;14.70;1.00;;;;;;5046232;28;20120;-56
2022/11/03 13:01:07;;;;;;;9.77;2.75;;;14.40;1.00;;;;;;5046704;28;20108;-59
2022/11/03 13:03:34;;;;;;;9.85;3.10;;;14.30;1.00;;;;;;5045587;28;20034;-59
2022/11/03 13:06:03;;;;;;;9.65;3.08;;;;;;;;;;5048178;28;20145;-59
2022/11/03 13:08:29;;;;;;;7.90;2.55;;;;;;;;;;5029917;28;20049;-55
2022/11/03 13:10:54;;;;;;;8.88;2.67;;;14.50;1.00;;;;;;5049117;28;20124;-54
2022/11/03 13:13:20;;;;;;;7.47;2.53;;;14.10;1.00;;;;;;5030291;28;20411;-54
2022/11/03 13:15:46;;;;;;;11.70;2.65;;;13.80;1.00;;;;;;5050174;28;20037;-56
2022/11/03 13:18:11;;;;;;;8.95;2.38;;;14.60;1.00;;;;;;5048499;28;20453;-58
2022/11/03 13:20:37;;;;;;;8.63;2.35;;;14.40;1.00;;;;;;5047411;28;20354;-56